sensor_id;sensor_type;location;lat;lon;timestamp;temperature;humidity
13091;DHT22;6611;52.604;13.438;2023-04-25T00:04:45;9.79;72.99
13091;DHT22;6611;52.604;13.438;2023-04-25T00:09:49;9.79;72.84
13091;DHT22;6611;52.604;13.438;2023-04-25T00:14:50;9.79;72.27
13091;DHT22;6611;52.604;13.438;2023-04-25T00:19:54;9.76;72.35
13091;DHT22;6611;52.604;13.438;2023-04-25T00:24:56;9.76;72.24
13091;DHT22;6611;52.604;13.438;2023-04-25T00:30:00;9.66;72.69
13091;DHT22;6611;52.604;13.438;2023-04-25T00:35:03;9.65;72.24
13091;DHT22;6611;52.604;13.438;2023-04-25T00:40:06;9.63;71.51
13091;DHT22;6611;52.604;13.438;2023-04-25T00:45:12;9.62;70.95
13091;DHT22;6611;52.604;13.438;2023-04-25T00:50:16;9.55;71.39
13091;DHT22;6611;52.604;13.438;2023-04-25T00:55:18;9.58;71.17
13091;DHT22;6611;52.604;13.438;2023-04-25T01:00:20;9.59;71.10
13091;DHT22;6611;52.604;13.438;2023-04-25T01:05:23;9.63;70.91
13091;DHT22;6611;52.604;13.438;2023-04-25T01:10:25;9.52;71.31
13091;DHT22;6611;52.604;13.438;2023-04-25T01:15:27;9.54;71.12
13091;DHT22;6611;52.604;13.438;2023-04-25T01:20:32;9.52;71.52
13091;DHT22;6611;52.604;13.438;2023-04-25T01:25:35;9.42;71.57
13091;DHT22;6611;52.604;13.438;2023-04-25T01:30:37;9.55;71.85
13091;DHT22;6611;52.604;13.438;2023-04-25T01:35:40;9.51;71.34
13091;DHT22;6611;52.604;13.438;2023-04-25T01:40:44;9.55;70.77
13091;DHT22;6611;52.604;13.438;2023-04-25T01:45:46;9.49;71.16
13091;DHT22;6611;52.604;13.438;2023-04-25T01:50:49;9.42;70.66
13091;DHT22;6611;52.604;13.438;2023-04-25T01:55:52;9.45;71.60
13091;DHT22;6611;52.604;13.438;2023-04-25T02:00:54;9.38;71.76
13091;DHT22;6611;52.604;13.438;2023-04-25T02:05:55;9.39;70.96
13091;DHT22;6611;52.604;13.438;2023-04-25T02:10:58;9.44;71.24
13091;DHT22;6611;52.604;13.438;2023-04-25T02:16:00;9.45;71.71
13091;DHT22;6611;52.604;13.438;2023-04-25T02:21:02;9.45;71.35
13091;DHT22;6611;52.604;13.438;2023-04-25T02:26:05;9.45;71.81
13091;DHT22;6611;52.604;13.438;2023-04-25T02:31:07;9.44;71.97
13091;DHT22;6611;52.604;13.438;2023-04-25T02:36:08;9.41;72.15
13091;DHT22;6611;52.604;13.438;2023-04-25T02:41:12;9.46;71.67
13091;DHT22;6611;52.604;13.438;2023-04-25T02:46:14;9.46;72.00
13091;DHT22;6611;52.604;13.438;2023-04-25T02:51:15;9.48;71.78
13091;DHT22;6611;52.604;13.438;2023-04-25T02:56:19;9.46;71.58
13091;DHT22;6611;52.604;13.438;2023-04-25T03:01:20;9.37;71.83
13091;DHT22;6611;52.604;13.438;2023-04-25T03:06:22;9.42;72.14
13091;DHT22;6611;52.604;13.438;2023-04-25T03:11:25;9.37;72.61
13091;DHT22;6611;52.604;13.438;2023-04-25T03:16:27;9.46;71.79
13091;DHT22;6611;52.604;13.438;2023-04-25T03:21:29;9.49;71.94
13091;DHT22;6611;52.604;13.438;2023-04-25T03:26:33;9.44;71.88
13091;DHT22;6611;52.604;13.438;2023-04-25T03:31:35;9.44;72.19
13091;DHT22;6611;52.604;13.438;2023-04-25T03:36:36;9.37;72.06
13091;DHT22;6611;52.604;13.438;2023-04-25T03:41:39;9.28;72.17
13091;DHT22;6611;52.604;13.438;2023-04-25T03:46:41;9.30;73.30
13091;DHT22;6611;52.604;13.438;2023-04-25T03:51:43;9.37;72.47
13091;DHT22;6611;52.604;13.438;2023-04-25T03:56:46;9.38;72.37
13091;DHT22;6611;52.604;13.438;2023-04-25T04:01:48;9.31;72.99
13091;DHT22;6611;52.604;13.438;2023-04-25T04:06:50;9.32;73.49
13091;DHT22;6611;52.604;13.438;2023-04-25T04:11:54;9.31;73.21
13091;DHT22;6611;52.604;13.438;2023-04-25T04:16:55;9.42;72.21
13091;DHT22;6611;52.604;13.438;2023-04-25T04:21:57;9.31;73.31
13091;DHT22;6611;52.604;13.438;2023-04-25T04:27:00;9.34;73.07
13091;DHT22;6611;52.604;13.438;2023-04-25T04:32:02;9.45;72.55
13091;DHT22;6611;52.604;13.438;2023-04-25T04:37:03;9.41;72.50
13091;DHT22;6611;52.604;13.438;2023-04-25T04:42:07;9.35;72.50
13091;DHT22;6611;52.604;13.438;2023-04-25T04:47:09;9.34;72.48
13091;DHT22;6611;52.604;13.438;2023-04-25T04:52:12;9.44;72.35
13091;DHT22;6611;52.604;13.438;2023-04-25T04:57:16;9.44;72.15
13091;DHT22;6611;52.604;13.438;2023-04-25T05:02:17;9.44;72.29
13091;DHT22;6611;52.604;13.438;2023-04-25T05:07:19;9.42;72.73
13091;DHT22;6611;52.604;13.438;2023-04-25T05:12:22;9.49;72.25
13091;DHT22;6611;52.604;13.438;2023-04-25T05:17:24;9.45;72.48
13091;DHT22;6611;52.604;13.438;2023-04-25T05:22:26;9.56;72.01
13091;DHT22;6611;52.604;13.438;2023-04-25T05:27:29;9.55;72.01
13091;DHT22;6611;52.604;13.438;2023-04-25T05:32:31;9.48;72.81
13091;DHT22;6611;52.604;13.438;2023-04-25T05:37:32;9.51;72.58
13091;DHT22;6611;52.604;13.438;2023-04-25T05:42:35;9.55;72.43
13091;DHT22;6611;52.604;13.438;2023-04-25T05:47:37;9.55;73.02
13091;DHT22;6611;52.604;13.438;2023-04-25T05:52:39;9.48;72.96
13091;DHT22;6611;52.604;13.438;2023-04-25T05:57:42;9.44;73.01
13091;DHT22;6611;52.604;13.438;2023-04-25T06:02:45;9.56;72.54
13091;DHT22;6611;52.604;13.438;2023-04-25T06:07:47;9.68;73.08
13091;DHT22;6611;52.604;13.438;2023-04-25T06:12:50;9.61;73.06
13091;DHT22;6611;52.604;13.438;2023-04-25T06:17:51;9.68;73.46
13091;DHT22;6611;52.604;13.438;2023-04-25T06:22:53;9.78;73.32
13091;DHT22;6611;52.604;13.438;2023-04-25T06:27:56;9.76;73.61
13091;DHT22;6611;52.604;13.438;2023-04-25T06:32:58;9.69;73.87
13091;DHT22;6611;52.604;13.438;2023-04-25T06:37:59;9.63;74.11
13091;DHT22;6611;52.604;13.438;2023-04-25T06:43:02;9.59;74.56
13091;DHT22;6611;52.604;13.438;2023-04-25T06:48:05;9.59;74.96
13091;DHT22;6611;52.604;13.438;2023-04-25T06:53:06;9.71;75.10
13091;DHT22;6611;52.604;13.438;2023-04-25T06:58:10;9.83;74.42
13091;DHT22;6611;52.604;13.438;2023-04-25T07:03:12;9.87;73.93
13091;DHT22;6611;52.604;13.438;2023-04-25T07:08:13;9.85;74.79
13091;DHT22;6611;52.604;13.438;2023-04-25T07:13:16;9.71;74.67
13091;DHT22;6611;52.604;13.438;2023-04-25T07:18:18;9.55;75.20
13091;DHT22;6611;52.604;13.438;2023-04-25T07:23:20;9.59;75.03
13091;DHT22;6611;52.604;13.438;2023-04-25T07:28:23;9.66;74.68
13091;DHT22;6611;52.604;13.438;2023-04-25T07:33:24;9.79;74.04
13091;DHT22;6611;52.604;13.438;2023-04-25T07:38:26;9.93;73.73
13091;DHT22;6611;52.604;13.438;2023-04-25T07:43:29;9.91;73.19
13091;DHT22;6611;52.604;13.438;2023-04-25T07:48:31;9.82;71.27
13091;DHT22;6611;52.604;13.438;2023-04-25T07:53:32;9.82;71.00
13091;DHT22;6611;52.604;13.438;2023-04-25T07:58:37;10.07;70.93
13091;DHT22;6611;52.604;13.438;2023-04-25T08:03:39;10.17;69.60
13091;DHT22;6611;52.604;13.438;2023-04-25T08:08:40;10.34;68.99
13091;DHT22;6611;52.604;13.438;2023-04-25T08:13:43;10.38;68.50
13091;DHT22;6611;52.604;13.438;2023-04-25T08:18:45;10.24;68.57
13091;DHT22;6611;52.604;13.438;2023-04-25T08:23:47;10.24;69.07
13091;DHT22;6611;52.604;13.438;2023-04-25T08:28:50;10.44;68.80
13091;DHT22;6611;52.604;13.438;2023-04-25T08:33:52;10.66;67.78
13091;DHT22;6611;52.604;13.438;2023-04-25T08:38:54;11.03;66.18
13091;DHT22;6611;52.604;13.438;2023-04-25T08:43:57;11.06;65.36
13091;DHT22;6611;52.604;13.438;2023-04-25T08:49:01;11.10;63.72
13091;DHT22;6611;52.604;13.438;2023-04-25T08:54:08;11.87;60.71
13091;DHT22;6611;52.604;13.438;2023-04-25T08:59:12;12.18;60.44
13091;DHT22;6611;52.604;13.438;2023-04-25T09:04:15;12.46;57.59
13091;DHT22;6611;52.604;13.438;2023-04-25T09:09:16;12.50;55.78
13091;DHT22;6611;52.604;13.438;2023-04-25T09:14:23;12.32;54.46
13091;DHT22;6611;52.604;13.438;2023-04-25T09:19:27;12.28;56.54
13091;DHT22;6611;52.604;13.438;2023-04-25T09:24:34;12.41;54.15
13091;DHT22;6611;52.604;13.438;2023-04-25T09:29:38;12.46;53.10
13091;DHT22;6611;52.604;13.438;2023-04-25T09:34:42;12.94;52.58
13091;DHT22;6611;52.604;13.438;2023-04-25T09:39:44;12.64;52.23
13091;DHT22;6611;52.604;13.438;2023-04-25T09:44:47;12.42;52.88
13091;DHT22;6611;52.604;13.438;2023-04-25T09:49:50;12.16;52.84
13091;DHT22;6611;52.604;13.438;2023-04-25T09:54:52;12.21;53.79
13091;DHT22;6611;52.604;13.438;2023-04-25T09:59:55;12.55;51.76
13091;DHT22;6611;52.604;13.438;2023-04-25T10:04:58;12.76;50.52
13091;DHT22;6611;52.604;13.438;2023-04-25T10:10:02;13.07;49.17
13091;DHT22;6611;52.604;13.438;2023-04-25T10:15:06;12.98;47.12
13091;DHT22;6611;52.604;13.438;2023-04-25T10:20:10;12.35;49.20
13091;DHT22;6611;52.604;13.438;2023-04-25T10:25:12;12.10;48.29
13091;DHT22;6611;52.604;13.438;2023-04-25T10:30:16;12.05;50.06
13091;DHT22;6611;52.604;13.438;2023-04-25T10:35:23;12.14;47.92
13091;DHT22;6611;52.604;13.438;2023-04-25T10:40:25;12.13;46.98
13091;DHT22;6611;52.604;13.438;2023-04-25T10:45:28;12.32;47.41
13091;DHT22;6611;52.604;13.438;2023-04-25T10:50:37;12.39;45.43
13091;DHT22;6611;52.604;13.438;2023-04-25T10:55:49;12.56;45.82
13091;DHT22;6611;52.604;13.438;2023-04-25T11:00:53;12.88;45.27
13091;DHT22;6611;52.604;13.438;2023-04-25T11:05:55;12.72;46.60
13091;DHT22;6611;52.604;13.438;2023-04-25T11:10:56;11.97;47.03
13091;DHT22;6611;52.604;13.438;2023-04-25T11:16:00;11.40;49.64
13091;DHT22;6611;52.604;13.438;2023-04-25T11:21:02;11.15;49.69
13091;DHT22;6611;52.604;13.438;2023-04-25T11:26:04;11.31;50.23
13091;DHT22;6611;52.604;13.438;2023-04-25T11:31:08;11.31;45.20
13091;DHT22;6611;52.604;13.438;2023-04-25T11:36:10;11.67;47.55
13091;DHT22;6611;52.604;13.438;2023-04-25T11:41:12;11.91;46.20
13091;DHT22;6611;52.604;13.438;2023-04-25T11:46:15;12.27;49.39
13091;DHT22;6611;52.604;13.438;2023-04-25T11:51:17;12.67;44.60
13091;DHT22;6611;52.604;13.438;2023-04-25T11:56:20;12.35;46.00
13091;DHT22;6611;52.604;13.438;2023-04-25T12:01:30;12.49;46.18
13091;DHT22;6611;52.604;13.438;2023-04-25T12:06:32;12.62;45.12
13091;DHT22;6611;52.604;13.438;2023-04-25T12:11:42;12.60;44.44
13091;DHT22;6611;52.604;13.438;2023-04-25T12:16:46;12.69;41.63
13091;DHT22;6611;52.604;13.438;2023-04-25T12:21:48;12.42;43.29
13091;DHT22;6611;52.604;13.438;2023-04-25T12:26:51;12.67;45.37
13091;DHT22;6611;52.604;13.438;2023-04-25T12:31:55;13.11;44.16
13091;DHT22;6611;52.604;13.438;2023-04-25T12:36:57;13.26;43.67
13091;DHT22;6611;52.604;13.438;2023-04-25T12:41:59;12.72;43.26
13091;DHT22;6611;52.604;13.438;2023-04-25T12:47:03;12.48;44.49
13091;DHT22;6611;52.604;13.438;2023-04-25T12:52:05;12.77;45.23
13091;DHT22;6611;52.604;13.438;2023-04-25T12:57:07;13.00;47.27
13091;DHT22;6611;52.604;13.438;2023-04-25T13:02:10;13.76;43.51
13091;DHT22;6611;52.604;13.438;2023-04-25T13:07:12;14.11;42.34
13091;DHT22;6611;52.604;13.438;2023-04-25T13:12:14;13.83;43.68
13091;DHT22;6611;52.604;13.438;2023-04-25T13:17:17;13.31;41.45
13091;DHT22;6611;52.604;13.438;2023-04-25T13:22:19;12.59;42.58
13091;DHT22;6611;52.604;13.438;2023-04-25T13:27:21;11.94;43.83
13091;DHT22;6611;52.604;13.438;2023-04-25T13:32:24;11.43;47.21
13091;DHT22;6611;52.604;13.438;2023-04-25T13:37:25;11.14;47.27
13091;DHT22;6611;52.604;13.438;2023-04-25T13:42:27;10.99;50.55
13091;DHT22;6611;52.604;13.438;2023-04-25T13:47:30;10.96;49.94
13091;DHT22;6611;52.604;13.438;2023-04-25T13:52:32;11.15;49.76
13091;DHT22;6611;52.604;13.438;2023-04-25T13:57:34;11.15;50.32
13091;DHT22;6611;52.604;13.438;2023-04-25T14:02:38;11.43;49.29
13091;DHT22;6611;52.604;13.438;2023-04-25T14:07:40;11.79;49.47
13091;DHT22;6611;52.604;13.438;2023-04-25T14:12:41;12.08;48.11
13091;DHT22;6611;52.604;13.438;2023-04-25T14:17:44;11.93;47.62
13091;DHT22;6611;52.604;13.438;2023-04-25T14:22:48;11.80;48.43
13091;DHT22;6611;52.604;13.438;2023-04-25T14:27:50;11.79;47.52
13091;DHT22;6611;52.604;13.438;2023-04-25T14:32:53;11.36;48.24
13091;DHT22;6611;52.604;13.438;2023-04-25T14:37:55;11.24;49.82
13091;DHT22;6611;52.604;13.438;2023-04-25T14:42:57;11.08;50.32
13091;DHT22;6611;52.604;13.438;2023-04-25T14:48:00;11.10;53.33
13091;DHT22;6611;52.604;13.438;2023-04-25T14:53:02;11.18;50.79
13091;DHT22;6611;52.604;13.438;2023-04-25T14:58:03;11.11;52.20
13091;DHT22;6611;52.604;13.438;2023-04-25T15:03:07;10.86;51.56
13091;DHT22;6611;52.604;13.438;2023-04-25T15:08:11;10.63;53.37
13091;DHT22;6611;52.604;13.438;2023-04-25T15:13:13;10.51;52.57
13091;DHT22;6611;52.604;13.438;2023-04-25T15:18:17;10.58;49.77
13091;DHT22;6611;52.604;13.438;2023-04-25T15:23:22;10.65;48.80
13091;DHT22;6611;52.604;13.438;2023-04-25T15:28:24;11.06;47.97
13091;DHT22;6611;52.604;13.438;2023-04-25T15:33:28;11.28;47.99
13091;DHT22;6611;52.604;13.438;2023-04-25T15:38:29;11.56;47.81
13091;DHT22;6611;52.604;13.438;2023-04-25T15:43:31;11.91;47.42
13091;DHT22;6611;52.604;13.438;2023-04-25T15:48:37;11.80;47.21
13091;DHT22;6611;52.604;13.438;2023-04-25T15:53:39;11.62;48.37
13091;DHT22;6611;52.604;13.438;2023-04-25T15:58:41;11.40;48.61
13091;DHT22;6611;52.604;13.438;2023-04-25T16:03:44;11.34;48.77
13091;DHT22;6611;52.604;13.438;2023-04-25T16:08:45;11.17;50.18
13091;DHT22;6611;52.604;13.438;2023-04-25T16:13:47;11.03;48.70
13091;DHT22;6611;52.604;13.438;2023-04-25T16:18:50;10.93;49.34
13091;DHT22;6611;52.604;13.438;2023-04-25T16:23:52;10.90;49.38
13091;DHT22;6611;52.604;13.438;2023-04-25T16:28:54;10.79;47.45
13091;DHT22;6611;52.604;13.438;2023-04-25T16:33:57;10.62;47.58
13091;DHT22;6611;52.604;13.438;2023-04-25T16:38:58;10.49;48.10
13091;DHT22;6611;52.604;13.438;2023-04-25T16:44:00;10.48;48.50
13091;DHT22;6611;52.604;13.438;2023-04-25T16:49:03;10.51;49.54
13091;DHT22;6611;52.604;13.438;2023-04-25T16:54:05;10.79;48.60
13091;DHT22;6611;52.604;13.438;2023-04-25T16:59:07;10.87;49.34
13091;DHT22;6611;52.604;13.438;2023-04-25T17:04:10;10.80;48.49
13091;DHT22;6611;52.604;13.438;2023-04-25T17:09:12;10.66;50.54
13091;DHT22;6611;52.604;13.438;2023-04-25T17:14:13;10.40;50.74
13091;DHT22;6611;52.604;13.438;2023-04-25T17:19:16;10.31;50.63
13091;DHT22;6611;52.604;13.438;2023-04-25T17:24:18;10.27;51.82
13091;DHT22;6611;52.604;13.438;2023-04-25T17:29:21;10.11;53.19
13091;DHT22;6611;52.604;13.438;2023-04-25T17:34:24;9.98;53.52
13091;DHT22;6611;52.604;13.438;2023-04-25T17:39:26;9.91;54.31
13091;DHT22;6611;52.604;13.438;2023-04-25T17:44:27;9.94;54.80
13091;DHT22;6611;52.604;13.438;2023-04-25T17:49:31;9.83;54.44
13091;DHT22;6611;52.604;13.438;2023-04-25T17:54:33;9.82;54.46
13091;DHT22;6611;52.604;13.438;2023-04-25T17:59:35;9.94;54.10
13091;DHT22;6611;52.604;13.438;2023-04-25T18:04:38;9.78;54.64
13091;DHT22;6611;52.604;13.438;2023-04-25T18:09:39;9.71;54.37
13091;DHT22;6611;52.604;13.438;2023-04-25T18:14:41;9.56;54.61
13091;DHT22;6611;52.604;13.438;2023-04-25T18:19:44;9.49;56.11
13091;DHT22;6611;52.604;13.438;2023-04-25T18:24:48;9.34;56.28
13091;DHT22;6611;52.604;13.438;2023-04-25T18:29:50;9.27;56.50
13091;DHT22;6611;52.604;13.438;2023-04-25T18:34:54;9.17;57.04
13091;DHT22;6611;52.604;13.438;2023-04-25T18:39:56;9.04;56.92
13091;DHT22;6611;52.604;13.438;2023-04-25T18:44:57;8.92;57.91
13091;DHT22;6611;52.604;13.438;2023-04-25T18:50:01;8.89;56.14
13091;DHT22;6611;52.604;13.438;2023-04-25T18:55:05;8.86;55.72
13091;DHT22;6611;52.604;13.438;2023-04-25T19:00:07;8.79;55.95
13091;DHT22;6611;52.604;13.438;2023-04-25T19:05:11;8.76;55.15
13091;DHT22;6611;52.604;13.438;2023-04-25T19:10:13;8.79;55.08
13091;DHT22;6611;52.604;13.438;2023-04-25T19:15:15;8.77;54.56
13091;DHT22;6611;52.604;13.438;2023-04-25T19:20:18;8.71;55.68
13091;DHT22;6611;52.604;13.438;2023-04-25T19:25:20;8.54;56.56
13091;DHT22;6611;52.604;13.438;2023-04-25T19:30:24;8.49;55.39
13091;DHT22;6611;52.604;13.438;2023-04-25T19:35:27;8.45;55.81
13091;DHT22;6611;52.604;13.438;2023-04-25T19:40:31;8.37;55.79
13091;DHT22;6611;52.604;13.438;2023-04-25T19:45:33;8.23;57.00
13091;DHT22;6611;52.604;13.438;2023-04-25T19:50:37;8.21;56.86
13091;DHT22;6611;52.604;13.438;2023-04-25T19:55:38;8.14;57.21
13091;DHT22;6611;52.604;13.438;2023-04-25T20:00:40;8.06;58.04
13091;DHT22;6611;52.604;13.438;2023-04-25T20:05:43;8.03;57.58
13091;DHT22;6611;52.604;13.438;2023-04-25T20:10:45;7.95;58.56
13091;DHT22;6611;52.604;13.438;2023-04-25T20:15:47;7.83;59.26
13091;DHT22;6611;52.604;13.438;2023-04-25T20:20:50;7.65;59.91
13091;DHT22;6611;52.604;13.438;2023-04-25T20:25:52;7.69;59.88
13091;DHT22;6611;52.604;13.438;2023-04-25T20:30:53;7.65;60.37
13091;DHT22;6611;52.604;13.438;2023-04-25T20:35:56;7.64;60.34
13091;DHT22;6611;52.604;13.438;2023-04-25T20:40:58;7.55;61.26
13091;DHT22;6611;52.604;13.438;2023-04-25T20:46:00;7.48;61.79
13091;DHT22;6611;52.604;13.438;2023-04-25T20:51:03;7.43;61.78
13091;DHT22;6611;52.604;13.438;2023-04-25T20:56:06;7.33;62.57
13091;DHT22;6611;52.604;13.438;2023-04-25T21:01:10;7.37;62.28
13091;DHT22;6611;52.604;13.438;2023-04-25T21:06:13;7.24;61.96
13091;DHT22;6611;52.604;13.438;2023-04-25T21:11:15;7.15;62.90
13091;DHT22;6611;52.604;13.438;2023-04-25T21:16:16;7.15;63.10
13091;DHT22;6611;52.604;13.438;2023-04-25T21:21:20;7.16;62.72
13091;DHT22;6611;52.604;13.438;2023-04-25T21:26:21;7.02;63.19
13091;DHT22;6611;52.604;13.438;2023-04-25T21:31:23;7.02;64.03
13091;DHT22;6611;52.604;13.438;2023-04-25T21:36:26;6.85;64.73
13091;DHT22;6611;52.604;13.438;2023-04-25T21:41:29;6.85;64.03
13091;DHT22;6611;52.604;13.438;2023-04-25T21:46:32;6.85;64.27
13091;DHT22;6611;52.604;13.438;2023-04-25T21:51:35;6.81;64.34
13091;DHT22;6611;52.604;13.438;2023-04-25T21:56:37;6.65;64.34
13091;DHT22;6611;52.604;13.438;2023-04-25T22:01:39;6.61;64.74
13091;DHT22;6611;52.604;13.438;2023-04-25T22:06:42;6.61;64.46
13091;DHT22;6611;52.604;13.438;2023-04-25T22:11:45;6.55;64.61
13091;DHT22;6611;52.604;13.438;2023-04-25T22:16:47;6.58;64.96
13091;DHT22;6611;52.604;13.438;2023-04-25T22:21:51;6.47;65.86
13091;DHT22;6611;52.604;13.438;2023-04-25T22:26:53;6.38;66.01
13091;DHT22;6611;52.604;13.438;2023-04-25T22:31:54;6.36;65.28
13091;DHT22;6611;52.604;13.438;2023-04-25T22:36:58;6.41;64.85
13091;DHT22;6611;52.604;13.438;2023-04-25T22:41:59;6.37;64.88
13091;DHT22;6611;52.604;13.438;2023-04-25T22:47:01;6.36;65.12
13091;DHT22;6611;52.604;13.438;2023-04-25T22:52:05;6.30;66.15
13091;DHT22;6611;52.604;13.438;2023-04-25T22:57:08;6.19;66.45
13091;DHT22;6611;52.604;13.438;2023-04-25T23:02:10;6.19;66.35
13091;DHT22;6611;52.604;13.438;2023-04-25T23:07:14;6.09;67.02
13091;DHT22;6611;52.604;13.438;2023-04-25T23:12:16;6.03;67.39
13091;DHT22;6611;52.604;13.438;2023-04-25T23:17:18;5.92;67.60
13091;DHT22;6611;52.604;13.438;2023-04-25T23:22:22;5.90;68.29
13091;DHT22;6611;52.604;13.438;2023-04-25T23:27:23;5.90;68.15
13091;DHT22;6611;52.604;13.438;2023-04-25T23:32:25;5.87;68.22
13091;DHT22;6611;52.604;13.438;2023-04-25T23:37:29;5.79;68.63
13091;DHT22;6611;52.604;13.438;2023-04-25T23:42:30;5.84;68.57
13091;DHT22;6611;52.604;13.438;2023-04-25T23:47:32;5.85;68.44
13091;DHT22;6611;52.604;13.438;2023-04-25T23:52:36;5.81;69.04
13091;DHT22;6611;52.604;13.438;2023-04-25T23:57:38;5.81;69.02
